sensor_id;sensor_type;location;lat;lon;timestamp;pressure;altitude;pressure_sealevel;temperature;humidity
60258;BME280;46115;44.484;11.314;2022-09-02T00:04:00;100393.66;;;19.44;100.00
60258;BME280;46115;44.484;11.314;2022-09-02T00:08:04;100385.47;;;19.45;100.00
60258;BME280;46115;44.484;11.314;2022-09-02T00:12:07;100391.75;;;19.35;100.00
60258;BME280;46115;44.484;11.314;2022-09-02T00:16:12;100363.59;;;19.19;100.00
60258;BME280;46115;44.484;11.314;2022-09-02T00:20:15;100379.47;;;19.32;100.00
60258;BME280;46115;44.484;11.314;2022-09-02T00:24:19;100377.44;;;19.45;100.00
60258;BME280;46115;44.484;11.314;2022-09-02T00:28:22;100380.25;;;19.44;100.00
60258;BME280;46115;44.484;11.314;2022-09-02T00:32:26;100371.72;;;19.39;100.00
60258;BME280;46115;44.484;11.314;2022-09-02T00:36:28;100377.19;;;19.27;100.00
60258;BME280;46115;44.484;11.314;2022-09-02T00:40:32;100365.41;;;19.09;100.00
60258;BME280;46115;44.484;11.314;2022-09-02T00:44:34;100364.34;;;19.00;100.00
60258;BME280;46115;44.484;11.314;2022-09-02T00:48:43;100319.94;;;18.77;100.00
60258;BME280;46115;44.484;11.314;2022-09-02T00:52:51;100354.75;;;18.77;100.00
60258;BME280;46115;44.484;11.314;2022-09-02T00:56:54;100346.38;;;18.70;100.00
60258;BME280;46115;44.484;11.314;2022-09-02T01:00:58;100361.47;;;18.60;100.00
60258;BME280;46115;44.484;11.314;2022-09-02T01:05:06;100337.59;;;18.36;100.00
60258;BME280;46115;44.484;11.314;2022-09-02T01:09:12;100359.00;;;18.48;100.00
60258;BME280;46115;44.484;11.314;2022-09-02T01:13:18;100353.00;;;18.55;100.00
60258;BME280;46115;44.484;11.314;2022-09-02T01:17:21;100351.47;;;18.42;100.00
60258;BME280;46115;44.484;11.314;2022-09-02T01:21:27;100334.13;;;18.25;100.00
60258;BME280;46115;44.484;11.314;2022-09-02T01:25:33;100332.44;;;18.24;100.00
60258;BME280;46115;44.484;11.314;2022-09-02T01:29:35;100355.53;;;18.25;100.00
60258;BME280;46115;44.484;11.314;2022-09-02T01:33:38;100351.81;;;18.16;100.00
60258;BME280;46115;44.484;11.314;2022-09-02T01:37:41;100340.38;;;18.14;100.00
60258;BME280;46115;44.484;11.314;2022-09-02T01:41:45;100356.56;;;18.13;100.00
60258;BME280;46115;44.484;11.314;2022-09-02T01:45:49;100347.31;;;18.17;100.00
60258;BME280;46115;44.484;11.314;2022-09-02T01:49:52;100355.13;;;18.08;100.00
60258;BME280;46115;44.484;11.314;2022-09-02T01:53:55;100357.50;;;18.23;100.00
60258;BME280;46115;44.484;11.314;2022-09-02T01:58:01;100347.03;;;18.20;100.00
60258;BME280;46115;44.484;11.314;2022-09-02T02:02:04;100338.31;;;18.18;100.00
60258;BME280;46115;44.484;11.314;2022-09-02T02:06:08;100333.81;;;18.18;100.00
60258;BME280;46115;44.484;11.314;2022-09-02T02:10:14;100348.03;;;18.19;100.00
60258;BME280;46115;44.484;11.314;2022-09-02T02:14:21;100340.72;;;18.21;100.00
60258;BME280;46115;44.484;11.314;2022-09-02T02:18:24;100334.56;;;18.09;100.00
60258;BME280;46115;44.484;11.314;2022-09-02T02:22:27;100344.50;;;18.18;100.00
60258;BME280;46115;44.484;11.314;2022-09-02T02:26:31;100349.34;;;18.24;100.00
60258;BME280;46115;44.484;11.314;2022-09-02T02:30:35;100345.59;;;18.16;100.00
60258;BME280;46115;44.484;11.314;2022-09-02T02:34:39;100344.59;;;18.28;100.00
60258;BME280;46115;44.484;11.314;2022-09-02T02:38:43;100339.34;;;18.26;100.00
60258;BME280;46115;44.484;11.314;2022-09-02T02:42:47;100337.78;;;18.24;100.00
60258;BME280;46115;44.484;11.314;2022-09-02T02:46:51;100338.50;;;18.26;100.00
60258;BME280;46115;44.484;11.314;2022-09-02T02:50:54;100340.72;;;18.21;100.00
60258;BME280;46115;44.484;11.314;2022-09-02T02:54:57;100346.91;;;18.21;100.00
60258;BME280;46115;44.484;11.314;2022-09-02T02:59:00;100353.50;;;18.17;100.00
60258;BME280;46115;44.484;11.314;2022-09-02T03:03:08;100350.31;;;18.23;100.00
60258;BME280;46115;44.484;11.314;2022-09-02T03:07:11;100343.09;;;18.67;100.00
60258;BME280;46115;44.484;11.314;2022-09-02T03:11:14;100348.41;;;18.78;100.00
60258;BME280;46115;44.484;11.314;2022-09-02T03:15:19;100340.91;;;18.61;100.00
60258;BME280;46115;44.484;11.314;2022-09-02T03:19:27;100329.13;;;18.31;100.00
60258;BME280;46115;44.484;11.314;2022-09-02T03:23:29;100340.91;;;18.40;100.00
60258;BME280;46115;44.484;11.314;2022-09-02T03:27:33;100323.34;;;18.47;100.00
60258;BME280;46115;44.484;11.314;2022-09-02T03:31:36;100306.53;;;18.24;100.00
60258;BME280;46115;44.484;11.314;2022-09-02T03:35:42;100317.22;;;18.24;100.00
60258;BME280;46115;44.484;11.314;2022-09-02T03:39:46;100311.56;;;18.18;100.00
60258;BME280;46115;44.484;11.314;2022-09-02T03:43:49;100317.31;;;18.02;100.00
60258;BME280;46115;44.484;11.314;2022-09-02T03:47:52;100304.28;;;18.08;100.00
60258;BME280;46115;44.484;11.314;2022-09-02T03:52:00;100300.19;;;18.04;100.00
60258;BME280;46115;44.484;11.314;2022-09-02T03:56:04;100296.75;;;18.02;100.00
60258;BME280;46115;44.484;11.314;2022-09-02T04:00:09;100311.63;;;17.95;100.00
60258;BME280;46115;44.484;11.314;2022-09-02T04:04:15;100327.41;;;17.98;100.00
60258;BME280;46115;44.484;11.314;2022-09-02T04:08:22;100325.97;;;17.94;100.00
60258;BME280;46115;44.484;11.314;2022-09-02T04:12:27;100333.88;;;17.85;100.00
60258;BME280;46115;44.484;11.314;2022-09-02T04:16:29;100330.72;;;17.91;100.00
60258;BME280;46115;44.484;11.314;2022-09-02T04:20:38;100338.84;;;17.89;100.00
60258;BME280;46115;44.484;11.314;2022-09-02T04:24:42;100329.88;;;17.90;100.00
60258;BME280;46115;44.484;11.314;2022-09-02T04:28:46;100327.44;;;17.87;100.00
60258;BME280;46115;44.484;11.314;2022-09-02T04:32:48;100323.81;;;17.77;100.00
60258;BME280;46115;44.484;11.314;2022-09-02T04:36:51;100328.53;;;17.85;100.00
60258;BME280;46115;44.484;11.314;2022-09-02T04:40:56;100326.16;;;17.70;100.00
60258;BME280;46115;44.484;11.314;2022-09-02T04:44:59;100333.66;;;17.76;100.00
60258;BME280;46115;44.484;11.314;2022-09-02T04:49:03;100329.25;;;17.64;100.00
60258;BME280;46115;44.484;11.314;2022-09-02T04:53:06;100342.03;;;17.83;100.00
60258;BME280;46115;44.484;11.314;2022-09-02T04:57:11;100335.25;;;17.79;100.00
60258;BME280;46115;44.484;11.314;2022-09-02T05:01:16;100337.78;;;17.81;100.00
60258;BME280;46115;44.484;11.314;2022-09-02T05:05:22;100360.34;;;18.10;100.00
60258;BME280;46115;44.484;11.314;2022-09-02T05:09:26;100353.03;;;18.01;100.00
60258;BME280;46115;44.484;11.314;2022-09-02T05:13:34;100363.75;;;18.12;100.00
60258;BME280;46115;44.484;11.314;2022-09-02T05:17:37;100297.19;;;17.87;100.00
60258;BME280;46115;44.484;11.314;2022-09-02T05:21:41;100359.06;;;18.25;100.00
60258;BME280;46115;44.484;11.314;2022-09-02T05:25:47;100365.53;;;18.23;100.00
60258;BME280;46115;44.484;11.314;2022-09-02T05:29:55;100368.97;;;18.46;100.00
60258;BME280;46115;44.484;11.314;2022-09-02T05:34:00;100367.66;;;18.40;100.00
60258;BME280;46115;44.484;11.314;2022-09-02T05:38:02;100370.53;;;18.48;100.00
60258;BME280;46115;44.484;11.314;2022-09-02T05:42:06;100367.41;;;18.75;100.00
60258;BME280;46115;44.484;11.314;2022-09-02T05:46:13;100349.03;;;18.38;100.00
60258;BME280;46115;44.484;11.314;2022-09-02T05:50:18;100366.25;;;18.57;100.00
60258;BME280;46115;44.484;11.314;2022-09-02T05:54:25;100326.25;;;18.23;100.00
60258;BME280;46115;44.484;11.314;2022-09-02T05:58:29;100370.38;;;18.61;100.00
60258;BME280;46115;44.484;11.314;2022-09-02T06:02:34;100369.00;;;18.78;100.00
60258;BME280;46115;44.484;11.314;2022-09-02T06:06:36;100379.88;;;19.07;99.36
60258;BME280;46115;44.484;11.314;2022-09-02T06:10:41;100387.44;;;19.74;94.68
60258;BME280;46115;44.484;11.314;2022-09-02T06:14:49;100392.31;;;20.68;87.43
60258;BME280;46115;44.484;11.314;2022-09-02T06:18:55;100393.44;;;20.75;87.19
60258;BME280;46115;44.484;11.314;2022-09-02T06:22:58;100397.13;;;20.55;87.00
60258;BME280;46115;44.484;11.314;2022-09-02T06:27:00;100405.78;;;21.54;82.12
60258;BME280;46115;44.484;11.314;2022-09-02T06:31:07;100398.34;;;21.18;82.67
60258;BME280;46115;44.484;11.314;2022-09-02T06:35:12;100411.31;;;21.42;81.02
60258;BME280;46115;44.484;11.314;2022-09-02T06:39:18;100399.63;;;23.15;73.73
60258;BME280;46115;44.484;11.314;2022-09-02T06:43:21;100404.22;;;21.88;78.91
60258;BME280;46115;44.484;11.314;2022-09-02T06:47:44;100404.53;;;23.19;73.15
60258;BME280;46115;44.484;11.314;2022-09-02T06:51:51;100396.44;;;24.72;68.46
60258;BME280;46115;44.484;11.314;2022-09-02T06:56:00;100413.31;;;27.92;55.59
60258;BME280;46115;44.484;11.314;2022-09-02T07:00:05;100411.34;;;28.87;50.75
60258;BME280;46115;44.484;11.314;2022-09-02T07:04:08;100416.97;;;29.63;48.28
60258;BME280;46115;44.484;11.314;2022-09-02T07:08:31;100416.72;;;29.93;47.67
60258;BME280;46115;44.484;11.314;2022-09-02T07:12:37;100411.50;;;31.91;42.84
60258;BME280;46115;44.484;11.314;2022-09-02T07:16:46;100403.13;;;29.37;47.85
60258;BME280;46115;44.484;11.314;2022-09-02T07:20:50;100416.19;;;30.65;44.34
60258;BME280;46115;44.484;11.314;2022-09-02T07:24:54;100422.44;;;33.98;38.11
60258;BME280;46115;44.484;11.314;2022-09-02T07:28:59;100420.84;;;33.91;37.84
60258;BME280;46115;44.484;11.314;2022-09-02T07:33:02;100414.22;;;36.29;32.26
60258;BME280;46115;44.484;11.314;2022-09-02T07:37:06;100406.38;;;35.45;32.03
60258;BME280;46115;44.484;11.314;2022-09-02T07:41:10;100419.88;;;37.63;28.61
60258;BME280;46115;44.484;11.314;2022-09-02T07:45:13;100418.72;;;37.97;28.12
60258;BME280;46115;44.484;11.314;2022-09-02T07:49:18;100423.22;;;39.80;25.48
60258;BME280;46115;44.484;11.314;2022-09-02T07:53:23;100425.72;;;39.40;26.01
60258;BME280;46115;44.484;11.314;2022-09-02T07:57:28;100423.66;;;39.57;26.36
60258;BME280;46115;44.484;11.314;2022-09-02T08:01:32;100437.16;;;41.19;23.96
60258;BME280;46115;44.484;11.314;2022-09-02T08:05:36;100426.53;;;38.76;27.36
60258;BME280;46115;44.484;11.314;2022-09-02T08:09:39;100420.69;;;38.67;27.03
60258;BME280;46115;44.484;11.314;2022-09-02T08:13:43;100418.50;;;39.34;26.55
60258;BME280;46115;44.484;11.314;2022-09-02T08:17:46;100414.75;;;42.21;22.40
60258;BME280;46115;44.484;11.314;2022-09-02T08:21:49;100408.69;;;42.14;21.83
60258;BME280;46115;44.484;11.314;2022-09-02T08:25:52;100401.91;;;39.02;25.10
60258;BME280;46115;44.484;11.314;2022-09-02T08:29:56;100423.25;;;44.61;20.00
60258;BME280;46115;44.484;11.314;2022-09-02T08:33:59;100427.81;;;44.33;20.12
60258;BME280;46115;44.484;11.314;2022-09-02T08:38:01;100430.59;;;44.14;19.20
60258;BME280;46115;44.484;11.314;2022-09-02T08:42:10;100417.25;;;43.64;19.61
60258;BME280;46115;44.484;11.314;2022-09-02T08:46:17;100416.22;;;43.83;19.54
60258;BME280;46115;44.484;11.314;2022-09-02T08:50:26;100398.47;;;38.57;26.17
60258;BME280;46115;44.484;11.314;2022-09-02T08:54:32;100399.00;;;40.03;23.40
60258;BME280;46115;44.484;11.314;2022-09-02T08:58:40;100421.28;;;44.81;18.65
60258;BME280;46115;44.484;11.314;2022-09-02T09:02:53;100422.78;;;45.84;17.51
60258;BME280;46115;44.484;11.314;2022-09-02T09:07:19;100395.22;;;41.61;21.24
60258;BME280;46115;44.484;11.314;2022-09-02T09:11:30;100355.84;;;32.30;35.05
60258;BME280;46115;44.484;11.314;2022-09-02T09:15:43;100409.22;;;43.04;20.43
60258;BME280;46115;44.484;11.314;2022-09-02T09:19:51;100391.53;;;40.13;23.88
60258;BME280;46115;44.484;11.314;2022-09-02T09:23:54;100397.53;;;41.08;21.58
60258;BME280;46115;44.484;11.314;2022-09-02T09:27:58;100388.38;;;41.33;21.22
60258;BME280;46115;44.484;11.314;2022-09-02T09:32:03;100391.03;;;44.55;18.31
60258;BME280;46115;44.484;11.314;2022-09-02T09:36:07;100365.34;;;40.41;22.45
60258;BME280;46115;44.484;11.314;2022-09-02T09:40:28;100341.25;;;34.69;29.38
60258;BME280;46115;44.484;11.314;2022-09-02T09:44:42;100341.88;;;30.69;36.61
60258;BME280;46115;44.484;11.314;2022-09-02T09:48:48;100324.06;;;27.74;42.13
60258;BME280;46115;44.484;11.314;2022-09-02T09:52:52;100322.03;;;28.48;39.48
60258;BME280;46115;44.484;11.314;2022-09-02T09:56:56;100327.53;;;29.73;37.46
60258;BME280;46115;44.484;11.314;2022-09-02T10:01:16;100326.03;;;29.30;38.79
60258;BME280;46115;44.484;11.314;2022-09-02T10:05:32;100315.56;;;27.18;41.48
60258;BME280;46115;44.484;11.314;2022-09-02T10:09:36;100311.91;;;27.70;39.88
60258;BME280;46115;44.484;11.314;2022-09-02T10:13:39;100317.06;;;29.08;39.14
60258;BME280;46115;44.484;11.314;2022-09-02T10:17:47;100322.63;;;27.93;41.91
60258;BME280;46115;44.484;11.314;2022-09-02T10:22:02;100322.19;;;27.60;40.33
60258;BME280;46115;44.484;11.314;2022-09-02T10:26:20;100320.41;;;28.54;39.00
60258;BME280;46115;44.484;11.314;2022-09-02T10:30:28;100313.75;;;28.20;40.35
60258;BME280;46115;44.484;11.314;2022-09-02T10:34:38;100274.47;;;28.66;37.69
60258;BME280;46115;44.484;11.314;2022-09-02T10:38:46;100312.78;;;28.92;38.56
60258;BME280;46115;44.484;11.314;2022-09-02T10:42:59;100307.28;;;28.21;38.02
60258;BME280;46115;44.484;11.314;2022-09-02T10:47:06;100300.59;;;27.37;41.29
60258;BME280;46115;44.484;11.314;2022-09-02T10:51:16;100291.41;;;27.53;40.95
60258;BME280;46115;44.484;11.314;2022-09-02T10:55:24;100296.06;;;27.59;40.38
60258;BME280;46115;44.484;11.314;2022-09-02T10:59:33;100289.69;;;26.32;42.15
60258;BME280;46115;44.484;11.314;2022-09-02T11:03:40;100275.19;;;26.48;40.84
60258;BME280;46115;44.484;11.314;2022-09-02T11:07:49;100275.97;;;27.39;38.79
60258;BME280;46115;44.484;11.314;2022-09-02T11:11:56;100275.97;;;27.53;39.39
60258;BME280;46115;44.484;11.314;2022-09-02T11:16:05;100274.97;;;27.10;40.92
60258;BME280;46115;44.484;11.314;2022-09-02T11:20:17;100273.00;;;27.19;40.22
60258;BME280;46115;44.484;11.314;2022-09-02T11:24:30;100262.94;;;26.75;41.46
60258;BME280;46115;44.484;11.314;2022-09-02T11:28:38;100263.28;;;26.11;42.70
60258;BME280;46115;44.484;11.314;2022-09-02T11:32:52;100256.41;;;26.24;41.71
60258;BME280;46115;44.484;11.314;2022-09-02T11:36:57;100260.09;;;26.68;41.53
60258;BME280;46115;44.484;11.314;2022-09-02T11:41:11;100263.97;;;26.74;41.36
60258;BME280;46115;44.484;11.314;2022-09-02T11:50:27;100254.47;;;27.08;40.63
60258;BME280;46115;44.484;11.314;2022-09-02T11:54:36;100253.53;;;26.48;41.81
60258;BME280;46115;44.484;11.314;2022-09-02T11:58:41;100244.78;;;25.92;41.77
60258;BME280;46115;44.484;11.314;2022-09-02T12:02:45;100239.91;;;26.71;41.42
60258;BME280;46115;44.484;11.314;2022-09-02T12:07:24;100244.88;;;26.97;40.19
60258;BME280;46115;44.484;11.314;2022-09-02T12:11:41;100241.41;;;26.13;40.75
60258;BME280;46115;44.484;11.314;2022-09-02T12:15:45;100224.38;;;26.50;40.53
60258;BME280;46115;44.484;11.314;2022-09-02T12:19:47;100226.94;;;26.96;40.38
60258;BME280;46115;44.484;11.314;2022-09-02T12:24:11;100227.28;;;26.63;40.71
60258;BME280;46115;44.484;11.314;2022-09-02T12:28:24;100219.69;;;26.21;41.82
60258;BME280;46115;44.484;11.314;2022-09-02T12:33:01;100209.59;;;26.38;41.01
60258;BME280;46115;44.484;11.314;2022-09-02T12:37:04;100205.72;;;26.99;39.35
60258;BME280;46115;44.484;11.314;2022-09-02T12:41:20;100194.78;;;26.78;39.81
60258;BME280;46115;44.484;11.314;2022-09-02T12:45:26;100198.81;;;26.07;42.10
60258;BME280;46115;44.484;11.314;2022-09-02T12:49:40;100194.00;;;26.32;41.73
60258;BME280;46115;44.484;11.314;2022-09-02T12:53:48;100193.91;;;26.92;40.06
60258;BME280;46115;44.484;11.314;2022-09-02T12:57:55;100190.13;;;26.34;41.48
60258;BME280;46115;44.484;11.314;2022-09-02T13:02:26;100177.72;;;26.40;41.33
60258;BME280;46115;44.484;11.314;2022-09-02T13:06:39;100174.25;;;26.08;41.42
60258;BME280;46115;44.484;11.314;2022-09-02T13:15:22;100173.88;;;25.89;41.67
60258;BME280;46115;44.484;11.314;2022-09-02T13:20:07;100166.13;;;26.46;40.47
60258;BME280;46115;44.484;11.314;2022-09-02T13:24:51;100163.50;;;26.67;40.15
60258;BME280;46115;44.484;11.314;2022-09-02T13:33:46;100150.09;;;26.74;40.36
60258;BME280;46115;44.484;11.314;2022-09-02T13:37:53;100160.94;;;25.99;42.02
60258;BME280;46115;44.484;11.314;2022-09-02T13:42:13;100139.28;;;25.99;42.67
60258;BME280;46115;44.484;11.314;2022-09-02T13:46:16;100111.44;;;25.90;42.37
60258;BME280;46115;44.484;11.314;2022-09-02T13:50:21;100126.72;;;26.06;42.41
60258;BME280;46115;44.484;11.314;2022-09-02T13:54:31;100140.34;;;26.13;42.32
60258;BME280;46115;44.484;11.314;2022-09-02T13:58:36;100129.50;;;26.13;43.03
60258;BME280;46115;44.484;11.314;2022-09-02T14:02:39;100135.66;;;26.44;42.90
60258;BME280;46115;44.484;11.314;2022-09-02T14:06:44;100127.06;;;26.55;42.62
60258;BME280;46115;44.484;11.314;2022-09-02T14:10:48;100130.91;;;26.46;43.07
60258;BME280;46115;44.484;11.314;2022-09-02T14:14:53;100126.59;;;26.81;42.19
60258;BME280;46115;44.484;11.314;2022-09-02T14:19:03;100110.13;;;26.68;42.08
60258;BME280;46115;44.484;11.314;2022-09-02T14:23:14;100115.97;;;26.13;43.52
60258;BME280;46115;44.484;11.314;2022-09-02T14:27:20;100114.94;;;26.14;43.32
60258;BME280;46115;44.484;11.314;2022-09-02T14:31:25;100102.91;;;26.16;42.88
60258;BME280;46115;44.484;11.314;2022-09-02T14:35:30;100110.19;;;26.30;42.98
60258;BME280;46115;44.484;11.314;2022-09-02T14:39:50;100110.00;;;26.32;42.84
60258;BME280;46115;44.484;11.314;2022-09-02T14:43:54;100110.84;;;26.32;42.89
60258;BME280;46115;44.484;11.314;2022-09-02T14:48:00;100100.72;;;26.49;42.81
60258;BME280;46115;44.484;11.314;2022-09-02T14:52:10;100091.03;;;26.17;42.60
60258;BME280;46115;44.484;11.314;2022-09-02T14:56:47;100097.00;;;26.13;43.20
60258;BME280;46115;44.484;11.314;2022-09-02T15:00:51;100066.88;;;25.93;43.10
60258;BME280;46115;44.484;11.314;2022-09-02T15:04:57;100087.97;;;26.64;42.19
60258;BME280;46115;44.484;11.314;2022-09-02T15:08:59;100088.28;;;26.40;42.96
60258;BME280;46115;44.484;11.314;2022-09-02T15:13:03;100091.19;;;26.38;43.41
60258;BME280;46115;44.484;11.314;2022-09-02T15:17:07;100092.63;;;26.26;43.35
60258;BME280;46115;44.484;11.314;2022-09-02T15:21:11;100095.78;;;26.15;43.31
60258;BME280;46115;44.484;11.314;2022-09-02T15:25:14;100095.22;;;26.05;43.26
60258;BME280;46115;44.484;11.314;2022-09-02T15:29:17;100113.03;;;26.52;42.51
60258;BME280;46115;44.484;11.314;2022-09-02T15:33:20;100109.31;;;26.53;42.86
60258;BME280;46115;44.484;11.314;2022-09-02T15:37:24;100090.88;;;26.33;43.05
60258;BME280;46115;44.484;11.314;2022-09-02T15:41:27;100101.16;;;26.00;43.68
60258;BME280;46115;44.484;11.314;2022-09-02T15:45:32;100097.44;;;26.01;43.69
60258;BME280;46115;44.484;11.314;2022-09-02T15:49:35;100099.16;;;26.17;43.78
60258;BME280;46115;44.484;11.314;2022-09-02T15:53:37;100089.63;;;26.06;44.02
60258;BME280;46115;44.484;11.314;2022-09-02T15:57:40;100090.34;;;26.00;44.11
60258;BME280;46115;44.484;11.314;2022-09-02T16:01:46;100090.06;;;25.95;44.32
60258;BME280;46115;44.484;11.314;2022-09-02T16:05:49;100096.34;;;26.10;44.24
60258;BME280;46115;44.484;11.314;2022-09-02T16:09:51;100094.13;;;26.29;44.39
60258;BME280;46115;44.484;11.314;2022-09-02T16:13:54;100098.44;;;25.86;45.20
60258;BME280;46115;44.484;11.314;2022-09-02T16:17:58;100094.53;;;25.88;45.27
60258;BME280;46115;44.484;11.314;2022-09-02T16:22:00;100095.22;;;26.05;45.56
60258;BME280;46115;44.484;11.314;2022-09-02T16:26:11;100094.44;;;25.96;45.59
60258;BME280;46115;44.484;11.314;2022-09-02T16:30:15;100098.91;;;25.89;45.96
60258;BME280;46115;44.484;11.314;2022-09-02T16:34:18;100087.47;;;26.02;45.43
60258;BME280;46115;44.484;11.314;2022-09-02T16:38:21;100094.03;;;25.85;46.30
60258;BME280;46115;44.484;11.314;2022-09-02T16:42:23;100086.25;;;26.04;46.04
60258;BME280;46115;44.484;11.314;2022-09-02T16:46:26;100105.81;;;25.92;46.92
60258;BME280;46115;44.484;11.314;2022-09-02T16:50:30;100103.34;;;25.67;46.55
60258;BME280;46115;44.484;11.314;2022-09-02T16:54:33;100113.16;;;25.68;47.22
60258;BME280;46115;44.484;11.314;2022-09-02T16:58:35;100105.59;;;25.56;48.31
60258;BME280;46115;44.484;11.314;2022-09-02T17:02:38;100106.84;;;25.45;47.62
60258;BME280;46115;44.484;11.314;2022-09-02T17:06:42;100100.94;;;25.18;48.60
60258;BME280;46115;44.484;11.314;2022-09-02T17:10:44;100096.97;;;25.29;47.95
60258;BME280;46115;44.484;11.314;2022-09-02T17:14:46;100098.59;;;25.15;49.30
60258;BME280;46115;44.484;11.314;2022-09-02T17:18:49;100101.16;;;25.09;49.04
60258;BME280;46115;44.484;11.314;2022-09-02T17:22:53;100112.88;;;25.01;49.28
60258;BME280;46115;44.484;11.314;2022-09-02T17:26:55;100106.91;;;24.98;48.62
60258;BME280;46115;44.484;11.314;2022-09-02T17:30:59;100101.41;;;24.99;49.03
60258;BME280;46115;44.484;11.314;2022-09-02T17:35:03;100105.50;;;24.79;50.05
60258;BME280;46115;44.484;11.314;2022-09-02T17:39:09;100114.00;;;24.60;54.14
60258;BME280;46115;44.484;11.314;2022-09-02T17:43:11;100114.19;;;24.58;53.92
60258;BME280;46115;44.484;11.314;2022-09-02T17:47:15;100120.34;;;24.36;53.52
60258;BME280;46115;44.484;11.314;2022-09-02T17:51:20;100124.19;;;24.41;53.94
60258;BME280;46115;44.484;11.314;2022-09-02T17:55:24;100126.72;;;24.43;54.41
60258;BME280;46115;44.484;11.314;2022-09-02T17:59:31;100114.41;;;24.16;55.70
60258;BME280;46115;44.484;11.314;2022-09-02T18:03:42;100118.00;;;24.00;54.91
60258;BME280;46115;44.484;11.314;2022-09-02T18:07:49;100125.59;;;23.97;54.76
60258;BME280;46115;44.484;11.314;2022-09-02T18:12:02;100127.78;;;23.60;55.78
60258;BME280;46115;44.484;11.314;2022-09-02T18:16:16;100123.72;;;23.73;55.05
60258;BME280;46115;44.484;11.314;2022-09-02T18:20:25;100132.00;;;23.79;53.81
60258;BME280;46115;44.484;11.314;2022-09-02T18:24:41;100125.91;;;23.85;55.02
60258;BME280;46115;44.484;11.314;2022-09-02T18:29:07;100136.03;;;23.67;55.05
60258;BME280;46115;44.484;11.314;2022-09-02T22:06:12;100158.28;;;21.18;61.29
60258;BME280;46115;44.484;11.314;2022-09-02T22:10:23;100139.34;;;21.10;61.10
60258;BME280;46115;44.484;11.314;2022-09-02T22:14:29;100180.69;;;21.36;61.31
60258;BME280;46115;44.484;11.314;2022-09-02T22:18:36;100169.47;;;21.41;61.02
60258;BME280;46115;44.484;11.314;2022-09-02T22:22:46;100178.28;;;21.33;61.30
60258;BME280;46115;44.484;11.314;2022-09-02T22:26:56;100191.34;;;21.46;61.11
60258;BME280;46115;44.484;11.314;2022-09-02T22:31:07;100203.13;;;21.45;61.59
60258;BME280;46115;44.484;11.314;2022-09-02T22:35:16;100202.25;;;21.44;62.01
60258;BME280;46115;44.484;11.314;2022-09-02T22:39:31;100204.38;;;21.13;63.33
60258;BME280;46115;44.484;11.314;2022-09-02T22:43:41;100200.44;;;21.17;63.23
60258;BME280;46115;44.484;11.314;2022-09-02T22:47:48;100188.88;;;21.35;63.25
60258;BME280;46115;44.484;11.314;2022-09-02T22:52:20;100195.69;;;21.02;65.06
60258;BME280;46115;44.484;11.314;2022-09-02T22:56:49;100204.00;;;20.71;66.81
60258;BME280;46115;44.484;11.314;2022-09-02T23:01:01;100204.75;;;21.01;66.50
60258;BME280;46115;44.484;11.314;2022-09-02T23:05:21;100191.72;;;20.69;68.39
60258;BME280;46115;44.484;11.314;2022-09-02T23:09:46;100196.97;;;20.61;69.48
60258;BME280;46115;44.484;11.314;2022-09-02T23:14:03;100204.03;;;20.62;69.98
60258;BME280;46115;44.484;11.314;2022-09-02T23:18:14;100199.97;;;20.29;73.30
60258;BME280;46115;44.484;11.314;2022-09-02T23:22:25;100202.09;;;20.44;72.51
60258;BME280;46115;44.484;11.314;2022-09-02T23:26:38;100197.81;;;20.61;71.23
60258;BME280;46115;44.484;11.314;2022-09-02T23:30:54;100197.84;;;20.42;72.42
60258;BME280;46115;44.484;11.314;2022-09-02T23:35:10;100187.13;;;20.51;72.79
60258;BME280;46115;44.484;11.314;2022-09-02T23:39:27;100184.00;;;20.37;74.94
60258;BME280;46115;44.484;11.314;2022-09-02T23:43:32;100182.59;;;20.33;77.08
60258;BME280;46115;44.484;11.314;2022-09-02T23:47:40;100191.09;;;20.18;79.04
60258;BME280;46115;44.484;11.314;2022-09-02T23:51:54;100162.59;;;19.98;79.88
60258;BME280;46115;44.484;11.314;2022-09-02T23:56:08;100181.78;;;20.03;80.53
